Time;durP1;ratioP1;P1;durP2;ratioP2;P2;SDS_P1;SDS_P2;PMS_P1;PMS_P2;Temp;Humidity;BMP_temperature;BMP_pressure;BME280_temperature;BME280_humidity;BME280_pressure;Samples;Min_cycle;Max_cycle;Signal;HPM_P1;HPM_P2
2023/03/22 00:02:25;;;;;;;8.27;6.10;;;10.40;99.90;;;;;;5075615;28;20225;-47
2023/03/22 00:04:51;;;;;;;11.47;6.23;;;10.40;99.90;;;;;;5075696;28;20180;-48
2023/03/22 00:07:17;;;;;;;10.70;6.13;;;10.40;99.90;;;;;;5075713;28;20249;-47
2023/03/22 00:09:42;;;;;;;9.60;6.43;;;10.40;99.90;;;;;;5075600;28;20207;-47
2023/03/22 00:12:08;;;;;;;8.60;6.13;;;10.40;99.90;;;;;;5075540;28;20293;-47
2023/03/22 00:14:35;;;;;;;9.40;6.17;;;10.30;99.90;;;;;;5075877;28;20281;-49
2023/03/22 00:17:00;;;;;;;9.33;6.27;;;10.30;99.90;;;;;;5075231;28;20694;-47
2023/03/22 00:19:27;;;;;;;11.20;6.53;;;10.20;99.90;;;;;;5075420;28;20187;-48
2023/03/22 00:21:54;;;;;;;9.13;5.93;;;10.20;99.90;;;;;;5075326;28;20211;-46
2023/03/22 00:24:20;;;;;;;8.13;5.80;;;10.10;99.90;;;;;;5075444;28;20182;-48
2023/03/22 00:26:46;;;;;;;8.67;6.10;;;10.00;99.90;;;;;;5074536;28;20221;-47
2023/03/22 00:29:11;;;;;;;9.87;6.53;;;10.00;99.90;;;;;;5075261;28;20175;-47
2023/03/22 00:31:37;;;;;;;10.80;6.33;;;9.90;99.90;;;;;;5074997;28;20662;-47
2023/03/22 00:34:03;;;;;;;9.67;5.53;;;9.90;99.90;;;;;;5075178;28;20262;-47
2023/03/22 00:36:28;;;;;;;12.63;5.30;;;9.90;99.90;;;;;;5075609;28;20175;-47
2023/03/22 00:38:54;;;;;;;6.33;5.40;;;9.80;99.90;;;;;;5074764;28;20183;-48
2023/03/22 00:41:22;;;;;;;9.17;6.13;;;9.80;99.90;;;;;;5074901;28;20337;-49
2023/03/22 00:43:48;;;;;;;7.70;5.23;;;9.80;99.90;;;;;;5074835;28;20656;-46
2023/03/22 00:46:16;;;;;;;8.73;5.93;;;9.80;99.90;;;;;;5073250;28;20700;-47
2023/03/22 00:48:42;;;;;;;10.43;5.83;;;9.70;99.90;;;;;;5088048;22;20235;-44
2023/03/22 00:51:09;;;;;;;10.20;6.50;;;9.70;99.90;;;;;;5074523;28;20195;-44
2023/03/22 00:53:35;;;;;;;8.77;5.70;;;9.70;99.90;;;;;;5074748;28;20665;-45
2023/03/22 00:56:02;;;;;;;6.83;5.70;;;9.60;99.90;;;;;;5074441;28;20670;-45
2023/03/22 00:58:27;;;;;;;6.90;5.63;;;9.60;99.90;;;;;;5074729;28;20194;-46
2023/03/22 01:00:53;;;;;;;7.50;6.20;;;9.50;99.90;;;;;;5074560;28;20628;-44
2023/03/22 01:03:20;;;;;;;9.43;5.93;;;9.40;99.90;;;;;;5074451;28;20208;-48
2023/03/22 01:05:48;;;;;;;6.47;4.97;;;9.40;99.90;;;;;;5074493;28;20221;-48
2023/03/22 01:08:15;;;;;;;9.40;5.23;;;9.30;99.90;;;;;;5074739;28;20191;-46
2023/03/22 01:10:42;;;;;;;7.87;5.73;;;9.30;99.90;;;;;;5074019;28;20675;-46
2023/03/22 01:13:09;;;;;;;11.50;5.87;;;9.20;99.90;;;;;;5075107;28;20197;-48
2023/03/22 01:15:35;;;;;;;8.90;5.60;;;9.30;99.90;;;;;;5075170;28;20580;-47
2023/03/22 01:18:01;;;;;;;9.57;5.43;;;9.20;99.90;;;;;;5075028;28;20221;-46
2023/03/22 01:20:27;;;;;;;6.67;5.27;;;9.10;99.90;;;;;;5075381;28;20244;-48
2023/03/22 01:22:53;;;;;;;7.40;5.50;;;9.00;99.90;;;;;;5075215;28;20213;-46
2023/03/22 01:25:18;;;;;;;6.77;4.90;;;9.00;99.90;;;;;;5074404;28;20185;-48
2023/03/22 01:27:44;;;;;;;7.60;4.83;;;9.00;99.90;;;;;;5073866;28;20182;-46
2023/03/22 01:30:11;;;;;;;8.13;5.07;;;8.90;99.90;;;;;;5073911;28;20187;-48
2023/03/22 01:32:37;;;;;;;7.30;4.50;;;8.80;99.90;;;;;;5074441;28;20203;-47
2023/03/22 01:35:03;;;;;;;7.93;5.43;;;8.80;99.90;;;;;;5074041;28;20541;-47
2023/03/22 01:37:29;;;;;;;6.57;4.73;;;8.70;99.90;;;;;;5073962;28;20642;-47
2023/03/22 01:39:54;;;;;;;7.67;4.83;;;8.70;99.90;;;;;;5073982;28;20196;-45
2023/03/22 01:42:22;;;;;;;8.30;5.00;;;8.70;99.90;;;;;;5073593;28;20244;-49
2023/03/22 01:45:29;;;;;;;6.57;5.43;;;8.70;99.90;;;;;;5073926;28;20236;-47
2023/03/22 01:48:00;;;;;;;10.17;5.17;;;8.70;99.90;;;;;;5067980;28;20213;-46
2023/03/22 01:50:26;;;;;;;8.47;5.07;;;8.70;99.90;;;;;;5073851;28;20262;-47
2023/03/22 01:52:54;;;;;;;9.47;5.20;;;8.80;99.90;;;;;;5072258;28;20281;-47
2023/03/22 01:55:21;;;;;;;9.07;5.07;;;8.80;99.90;;;;;;5073758;28;20177;-47
2023/03/22 01:57:47;;;;;;;8.57;4.83;;;8.80;99.90;;;;;;5073746;28;20277;-45
2023/03/22 02:00:14;;;;;;;6.80;5.00;;;8.80;99.90;;;;;;5073627;28;20178;-45
2023/03/22 02:02:45;;;;;;;11.43;5.00;;;8.70;99.90;;;;;;5073614;28;20194;-46
2023/03/22 02:05:11;;;;;;;9.77;4.90;;;8.70;99.90;;;;;;5073309;28;20655;-45
2023/03/22 02:07:39;;;;;;;6.37;4.90;;;8.70;99.90;;;;;;5073616;28;20181;-47
2023/03/22 02:10:17;;;;;;;6.10;4.37;;;8.60;99.90;;;;;;5073496;28;20182;-46
2023/03/22 02:12:55;;;;;;;8.33;4.27;;;8.60;99.90;;;;;;5073478;28;20268;-47
2023/03/22 02:15:39;;;;;;;8.20;4.63;;;8.60;99.90;;;;;;5074134;28;20174;-47
2023/03/22 02:18:10;;;;;;;9.83;4.53;;;8.50;99.90;;;;;;5073604;28;20201;-46
2023/03/22 02:20:56;;;;;;;6.77;5.10;;;8.60;99.90;;;;;;5073255;28;20253;-47
2023/03/22 02:23:34;;;;;;;6.50;4.70;;;8.50;99.90;;;;;;5074413;28;20233;-48
2023/03/22 02:26:42;;;;;;;6.97;4.50;;;8.50;99.90;;;;;;5074121;28;20171;-47
2023/03/22 02:29:34;;;;;;;6.10;3.70;;;8.50;99.90;;;;;;5073587;28;20166;-47
2023/03/22 02:32:18;;;;;;;11.07;4.17;;;8.40;99.90;;;;;;5073685;28;20741;-46
2023/03/22 02:35:20;;;;;;;9.27;4.23;;;8.40;99.90;;;;;;5073718;28;20184;-46
2023/03/22 02:38:12;;;;;;;7.83;4.27;;;8.50;99.90;;;;;;5058064;28;20271;-49
2023/03/22 02:40:42;;;;;;;9.00;3.73;;;8.50;99.90;;;;;;5073436;28;20244;-46
2023/03/22 02:43:37;;;;;;;8.67;4.37;;;8.50;99.90;;;;;;5073020;28;20196;-47
2023/03/22 02:46:25;;;;;;;6.03;3.77;;;8.50;99.90;;;;;;5068251;28;20213;-47
2023/03/22 02:49:20;;;;;;;4.37;3.57;;;8.50;99.90;;;;;;5073629;28;20208;-47
2023/03/22 02:51:58;;;;;;;6.33;3.73;;;8.40;99.90;;;;;;5076929;28;20206;-47
2023/03/22 02:54:32;;;;;;;5.83;3.93;;;8.40;99.90;;;;;;5077170;28;20162;-47
2023/03/22 02:57:04;;;;;;;6.30;3.60;;;8.40;99.90;;;;;;5076934;28;20225;-47
2023/03/22 02:59:33;;;;;;;6.07;3.50;;;8.50;99.90;;;;;;5077211;28;20230;-47
2023/03/22 03:02:02;;;;;;;10.30;3.67;;;8.50;99.90;;;;;;5076507;28;20230;-47
2023/03/22 03:04:33;;;;;;;4.27;3.37;;;8.40;99.90;;;;;;5076917;28;20194;-47
2023/03/22 03:07:04;;;;;;;8.37;3.80;;;8.50;99.90;;;;;;5077133;28;20164;-48
2023/03/22 03:09:31;;;;;;;6.17;3.67;;;8.50;99.90;;;;;;5076819;28;20206;-47
2023/03/22 03:11:57;;;;;;;6.20;3.00;;;8.50;99.90;;;;;;5076457;28;20227;-47
2023/03/22 03:14:26;;;;;;;5.27;3.40;;;8.50;99.90;;;;;;5076639;28;20195;-47
2023/03/22 03:17:32;;;;;;;7.13;3.67;;;8.50;99.90;;;;;;5076350;28;20211;-46
2023/03/22 03:20:29;;;;;;;5.20;3.00;;;8.50;99.90;;;;;;5075846;28;20664;-47
2023/03/22 03:23:13;;;;;;;8.37;3.90;;;8.50;99.90;;;;;;5077211;28;20199;-48
2023/03/22 03:25:47;;;;;;;5.30;3.23;;;8.40;99.90;;;;;;5076706;28;20244;-45
2023/03/22 03:28:21;;;;;;;6.20;3.60;;;8.40;99.90;;;;;;5076123;28;20177;-45
2023/03/22 03:31:04;;;;;;;5.90;3.43;;;8.40;99.90;;;;;;5076409;28;20238;-48
2023/03/22 03:33:33;;;;;;;5.97;3.67;;;8.40;99.90;;;;;;5076263;28;20163;-46
2023/03/22 03:36:07;;;;;;;5.20;3.13;;;8.30;99.90;;;;;;5076296;28;20534;-48
2023/03/22 03:38:37;;;;;;;6.07;3.33;;;8.30;99.90;;;;;;5076183;28;20171;-47
2023/03/22 03:41:09;;;;;;;6.50;3.17;;;8.30;99.90;;;;;;5076538;28;20194;-47
2023/03/22 03:43:35;;;;;;;6.93;3.37;;;8.30;99.90;;;;;;5075893;28;20193;-47
2023/03/22 03:46:01;;;;;;;4.87;3.37;;;8.30;99.90;;;;;;5076092;28;20266;-48
2023/03/22 03:48:30;;;;;;;7.30;3.20;;;8.30;99.90;;;;;;5075826;28;20230;-47
2023/03/22 03:50:57;;;;;;;4.67;3.20;;;8.30;99.90;;;;;;5075862;28;20197;-48
2023/03/22 03:53:24;;;;;;;6.67;3.43;;;8.30;99.90;;;;;;5076766;28;20183;-46
2023/03/22 03:55:49;;;;;;;5.90;3.40;;;8.20;99.90;;;;;;5075652;28;20191;-49
2023/03/22 03:58:15;;;;;;;6.47;3.50;;;8.20;99.90;;;;;;5076319;28;20190;-53
2023/03/22 04:00:41;;;;;;;6.80;3.70;;;8.20;99.90;;;;;;5074347;28;20200;-52
2023/03/22 04:03:07;;;;;;;4.93;3.17;;;8.20;99.90;;;;;;5075944;28;20219;-50
2023/03/22 04:05:32;;;;;;;7.00;3.17;;;8.20;99.90;;;;;;5076420;28;20177;-52
2023/03/22 04:07:58;;;;;;;5.67;3.00;;;8.20;99.90;;;;;;5075818;28;20172;-50
2023/03/22 04:10:24;;;;;;;5.73;2.80;;;8.20;99.90;;;;;;5075443;28;20180;-50
2023/03/22 04:12:49;;;;;;;7.13;3.20;;;8.30;99.90;;;;;;5079390;28;20180;-50
2023/03/22 04:15:19;;;;;;;7.70;3.30;;;8.40;99.90;;;;;;5080301;28;20180;-50
2023/03/22 04:17:45;;;;;;;4.37;3.10;;;8.40;99.90;;;;;;5075454;28;20196;-50
2023/03/22 04:20:12;;;;;;;8.03;3.80;;;8.50;99.90;;;;;;5076001;28;20187;-50
2023/03/22 04:22:39;;;;;;;5.73;3.30;;;8.50;99.90;;;;;;5077127;28;20234;-49
2023/03/22 04:25:10;;;;;;;5.37;3.57;;;8.60;99.90;;;;;;5075110;28;20183;-50
2023/03/22 04:27:37;;;;;;;6.70;3.50;;;8.60;99.90;;;;;;5075412;28;20255;-50
2023/03/22 04:30:09;;;;;;;6.67;3.40;;;8.60;99.90;;;;;;5075316;28;20209;-49
2023/03/22 04:32:35;;;;;;;7.20;3.07;;;8.60;99.90;;;;;;5075007;28;20645;-52
2023/03/22 04:35:01;;;;;;;7.60;4.13;;;8.60;99.90;;;;;;5074912;28;20270;-49
2023/03/22 04:37:26;;;;;;;6.40;3.30;;;8.60;99.90;;;;;;5075210;28;20188;-51
2023/03/22 04:39:53;;;;;;;7.60;3.83;;;8.50;99.90;;;;;;5075162;28;20180;-50
2023/03/22 04:42:19;;;;;;;6.97;3.30;;;8.50;99.90;;;;;;5074630;28;20205;-52
2023/03/22 04:44:45;;;;;;;6.17;3.27;;;8.50;99.90;;;;;;5075023;28;20189;-51
2023/03/22 04:47:11;;;;;;;5.70;3.73;;;8.50;99.90;;;;;;5073851;28;20546;-50
2023/03/22 04:49:36;;;;;;;4.47;3.07;;;8.50;99.90;;;;;;5074609;28;20689;-53
2023/03/22 04:52:02;;;;;;;7.00;3.63;;;8.50;99.90;;;;;;5074528;28;20204;-50
2023/03/22 04:54:28;;;;;;;7.80;4.00;;;8.50;99.90;;;;;;5074981;28;20180;-51
2023/03/22 04:56:53;;;;;;;7.53;3.77;;;8.50;99.90;;;;;;5074571;28;20182;-51
2023/03/22 04:59:19;;;;;;;8.87;3.57;;;8.50;99.90;;;;;;5074431;28;20173;-51
2023/03/22 05:01:49;;;;;;;11.10;4.10;;;8.50;99.90;;;;;;5074290;28;20294;-50
2023/03/22 05:04:16;;;;;;;7.30;4.83;;;8.50;99.90;;;;;;5074290;28;20224;-51
2023/03/22 05:06:41;;;;;;;5.73;3.37;;;8.50;99.90;;;;;;5074267;28;20287;-49
2023/03/22 05:09:08;;;;;;;6.63;3.50;;;8.50;99.90;;;;;;5074321;28;20259;-52
2023/03/22 05:11:35;;;;;;;7.17;3.70;;;8.50;99.90;;;;;;5074166;28;20201;-53
2023/03/22 05:14:01;;;;;;;7.70;3.50;;;8.60;99.90;;;;;;5074735;28;20184;-49
2023/03/22 05:16:27;;;;;;;7.43;3.27;;;8.60;99.90;;;;;;5074689;28;20181;-49
2023/03/22 05:18:54;;;;;;;6.50;3.10;;;8.70;99.90;;;;;;5074165;28;20168;-51
2023/03/22 05:21:27;;;;;;;6.63;3.63;;;8.80;99.90;;;;;;5074473;28;20269;-50
2023/03/22 05:23:56;;;;;;;6.20;3.43;;;8.80;99.90;;;;;;5074274;28;20191;-51
2023/03/22 05:26:25;;;;;;;7.43;3.93;;;8.90;99.90;;;;;;5074284;28;20270;-50
2023/03/22 05:28:52;;;;;;;8.70;3.67;;;8.90;99.90;;;;;;5073894;28;20175;-51
2023/03/22 05:31:20;;;;;;;8.97;3.67;;;8.90;99.90;;;;;;5074045;28;20276;-50
2023/03/22 05:33:50;;;;;;;4.27;3.43;;;8.90;99.90;;;;;;5074038;28;20269;-52
2023/03/22 05:36:17;;;;;;;7.70;4.03;;;9.00;99.90;;;;;;5074286;28;20262;-52
2023/03/22 05:38:43;;;;;;;8.87;4.10;;;9.00;99.90;;;;;;5072434;28;20269;-51
2023/03/22 05:41:10;;;;;;;7.33;3.13;;;9.00;99.90;;;;;;5074011;28;20290;-49
2023/03/22 05:43:36;;;;;;;10.50;3.63;;;9.10;99.90;;;;;;5073717;28;20751;-49
2023/03/22 05:46:10;;;;;;;7.57;3.70;;;9.20;99.90;;;;;;5074263;28;20206;-51
2023/03/22 05:48:37;;;;;;;9.03;3.20;;;9.20;99.90;;;;;;5073488;28;20191;-51
2023/03/22 05:51:16;;;;;;;6.07;3.40;;;9.20;99.90;;;;;;5073516;28;20595;-51
2023/03/22 05:53:46;;;;;;;5.50;3.13;;;9.30;99.90;;;;;;5073820;28;20160;-51
2023/03/22 05:56:13;;;;;;;5.90;3.17;;;9.30;99.90;;;;;;5074100;28;20196;-52
2023/03/22 05:58:40;;;;;;;5.63;3.10;;;9.30;99.90;;;;;;5073423;28;20171;-52
2023/03/22 06:01:14;;;;;;;6.50;3.27;;;9.30;99.90;;;;;;5073592;28;20209;-50
2023/03/22 06:03:40;;;;;;;7.60;3.20;;;9.30;99.90;;;;;;5073691;28;20203;-49
2023/03/22 06:06:09;;;;;;;7.03;2.90;;;9.30;99.90;;;;;;5073401;28;20597;-49
2023/03/22 06:08:36;;;;;;;7.23;3.27;;;9.40;99.90;;;;;;5073583;28;20259;-52
2023/03/22 06:11:02;;;;;;;6.47;2.20;;;9.40;99.90;;;;;;5073368;28;20194;-52
2023/03/22 06:13:28;;;;;;;2.77;1.83;;;9.50;99.90;;;;;;5073403;28;20589;-52
2023/03/22 06:15:54;;;;;;;5.90;2.57;;;9.60;99.90;;;;;;5073596;28;20268;-51
2023/03/22 06:18:19;;;;;;;8.77;2.60;;;9.60;99.90;;;;;;5073158;28;20655;-51
2023/03/22 06:20:45;;;;;;;6.23;2.07;;;9.70;99.90;;;;;;5073209;28;20207;-50
2023/03/22 06:23:11;;;;;;;10.73;2.20;;;9.70;99.90;;;;;;5073183;28;20200;-52
2023/03/22 06:25:36;;;;;;;6.33;2.00;;;9.70;99.90;;;;;;5077139;28;20176;-52
2023/03/22 06:28:02;;;;;;;7.33;2.13;;;9.80;99.90;;;;;;5077747;28;20275;-51
2023/03/22 06:30:28;;;;;;;8.87;2.30;;;9.80;99.90;;;;;;5077219;28;20192;-50
2023/03/22 06:32:54;;;;;;;4.27;2.33;;;9.80;99.90;;;;;;5077246;28;20293;-49
2023/03/22 06:35:19;;;;;;;7.90;2.50;;;9.90;99.90;;;;;;5077706;28;20177;-49
2023/03/22 06:37:45;;;;;;;9.83;2.07;;;10.00;99.90;;;;;;5077184;28;20190;-49
2023/03/22 06:40:11;;;;;;;7.93;2.00;;;10.00;99.90;;;;;;5077142;28;20262;-52
2023/03/22 06:42:36;;;;;;;7.90;2.23;;;10.00;99.90;;;;;;5077251;28;20237;-51
2023/03/22 06:45:03;;;;;;;5.03;1.60;;;10.10;99.90;;;;;;5077073;28;20509;-50
2023/03/22 06:47:28;;;;;;;5.47;1.70;;;10.20;99.90;;;;;;5076863;28;20264;-51
2023/03/22 06:49:54;;;;;;;2.90;1.43;;;10.20;99.90;;;;;;5075834;22;20654;-48
2023/03/22 06:52:20;;;;;;;7.50;2.37;;;10.20;99.90;;;;;;5057182;28;20197;-49
2023/03/22 06:54:45;;;;;;;5.80;2.10;;;10.30;99.90;;;;;;5057072;28;20669;-48
2023/03/22 06:57:11;;;;;;;3.07;1.50;;;10.40;99.90;;;;;;5057183;28;20176;-49
2023/03/22 06:59:37;;;;;;;7.30;1.93;;;10.40;99.90;;;;;;5057049;28;20213;-48
2023/03/22 07:02:03;;;;;;;4.53;1.30;;;10.40;99.90;;;;;;5056984;28;20619;-47
2023/03/22 07:04:29;;;;;;;6.53;1.97;;;10.50;99.90;;;;;;5056957;28;20660;-49
2023/03/22 07:06:56;;;;;;;4.07;1.13;;;10.60;99.90;;;;;;5056905;28;20270;-49
2023/03/22 07:09:26;;;;;;;6.37;2.23;;;10.70;99.90;;;;;;5056817;28;20180;-49
2023/03/22 07:11:53;;;;;;;8.67;1.73;;;10.80;99.90;;;;;;5056328;28;20203;-48
2023/03/22 07:14:18;;;;;;;5.63;1.70;;;10.80;99.90;;;;;;5055962;28;20291;-49
2023/03/22 07:16:44;;;;;;;6.43;1.80;;;10.80;99.90;;;;;;5056417;28;20692;-49
2023/03/22 07:19:10;;;;;;;6.47;1.83;;;10.90;99.90;;;;;;5057110;28;20183;-49
2023/03/22 07:21:36;;;;;;;9.07;2.10;;;10.80;99.90;;;;;;5063960;28;20209;-51
2023/03/22 07:24:03;;;;;;;5.37;1.40;;;10.80;99.90;;;;;;5056582;28;20216;-52
2023/03/22 07:26:29;;;;;;;9.00;2.17;;;10.80;99.90;;;;;;5055241;28;20173;-53
2023/03/22 07:28:55;;;;;;;5.17;1.40;;;10.80;99.90;;;;;;5056153;28;20596;-51
2023/03/22 07:31:21;;;;;;;8.57;1.93;;;10.90;99.90;;;;;;5056305;28;20205;-51
2023/03/22 07:33:47;;;;;;;5.30;1.70;;;10.90;99.90;;;;;;5054798;28;20182;-52
2023/03/22 07:36:13;;;;;;;6.63;1.83;;;10.90;99.90;;;;;;5055682;28;20232;-52
2023/03/22 07:38:39;;;;;;;3.20;1.30;;;10.90;99.90;;;;;;5054699;28;20187;-52
2023/03/22 07:41:05;;;;;;;4.63;1.77;;;11.00;99.90;;;;;;5056116;28;20203;-50
2023/03/22 07:43:30;;;;;;;5.20;1.47;;;11.00;99.90;;;;;;5055852;28;20204;-52
2023/03/22 07:45:56;;;;;;;6.50;2.00;;;11.00;99.90;;;;;;5055805;28;20263;-51
2023/03/22 07:48:22;;;;;;;4.20;1.73;;;11.00;99.90;;;;;;5055672;28;20175;-51
2023/03/22 07:50:48;;;;;;;6.43;1.33;;;11.00;99.90;;;;;;5054844;28;20282;-51
2023/03/22 07:53:14;;;;;;;4.47;1.37;;;11.10;99.90;;;;;;5054540;28;20272;-52
2023/03/22 07:55:41;;;;;;;6.27;1.80;;;11.10;99.90;;;;;;5054568;28;20175;-51
2023/03/22 07:58:06;;;;;;;3.50;1.43;;;11.10;99.90;;;;;;5054761;28;20188;-52
2023/03/22 08:00:32;;;;;;;4.90;1.63;;;11.20;99.90;;;;;;5054364;28;20199;-51
2023/03/22 08:02:58;;;;;;;5.03;1.37;;;11.20;99.90;;;;;;5054373;28;20203;-52
2023/03/22 08:05:24;;;;;;;5.10;1.07;;;11.10;99.90;;;;;;5054332;28;20180;-51
2023/03/22 08:07:55;;;;;;;5.47;1.43;;;11.10;99.90;;;;;;5054254;28;20275;-51
2023/03/22 08:10:21;;;;;;;6.97;1.67;;;11.20;99.90;;;;;;5054601;28;20179;-51
2023/03/22 08:12:47;;;;;;;5.40;2.07;;;11.20;99.90;;;;;;5054226;28;20188;-51
2023/03/22 08:15:12;;;;;;;6.40;1.80;;;11.20;99.90;;;;;;5054386;28;20271;-50
2023/03/22 08:17:38;;;;;;;3.60;1.50;;;11.20;99.90;;;;;;5054176;28;20204;-50
2023/03/22 08:20:08;;;;;;;3.30;1.30;;;11.20;99.90;;;;;;5054181;28;20186;-51
2023/03/22 08:22:35;;;;;;;5.53;2.10;;;11.30;99.90;;;;;;5054319;28;20678;-52
2023/03/22 08:25:01;;;;;;;4.40;1.83;;;11.30;99.90;;;;;;5054355;28;20297;-52
2023/03/22 08:27:27;;;;;;;2.47;1.20;;;11.20;99.90;;;;;;5054665;28;20646;-51
2023/03/22 08:29:53;;;;;;;3.10;1.37;;;11.30;99.90;;;;;;5054284;28;20176;-51
2023/03/22 08:32:18;;;;;;;3.87;1.30;;;11.30;99.90;;;;;;5054036;28;20200;-52
2023/03/22 08:34:44;;;;;;;4.50;1.60;;;11.30;99.90;;;;;;5054477;28;20481;-52
2023/03/22 08:37:11;;;;;;;7.87;1.90;;;11.30;99.90;;;;;;5053993;28;20172;-51
2023/03/22 08:39:37;;;;;;;2.67;1.40;;;11.40;99.90;;;;;;5053866;28;20222;-51
2023/03/22 08:42:03;;;;;;;4.97;1.53;;;11.40;99.90;;;;;;5054022;28;20219;-53
2023/03/22 08:44:29;;;;;;;7.57;1.53;;;11.40;99.90;;;;;;5053801;28;20180;-52
2023/03/22 08:46:55;;;;;;;6.93;1.60;;;11.50;99.90;;;;;;5053191;28;20207;-52
2023/03/22 08:49:21;;;;;;;2.97;1.20;;;11.70;99.90;;;;;;5016500;28;1078173;-51
2023/03/22 08:51:47;;;;;;;8.03;1.90;;;11.80;99.90;;;;;;5054771;28;20199;-51
2023/03/22 08:54:12;;;;;;;5.53;1.83;;;11.90;99.90;;;;;;5054546;28;20180;-51
2023/03/22 08:56:38;;;;;;;3.37;1.23;;;11.90;99.90;;;;;;5054510;28;20326;-51
2023/03/22 08:59:06;;;;;;;2.40;1.30;;;12.00;99.90;;;;;;5053307;28;20185;-53
2023/03/22 09:01:33;;;;;;;3.57;1.37;;;12.10;99.90;;;;;;5054694;28;20200;-53
2023/03/22 09:03:59;;;;;;;9.57;1.13;;;12.30;99.90;;;;;;5054572;28;20653;-52
2023/03/22 09:06:25;;;;;;;2.80;1.23;;;12.30;99.90;;;;;;5054363;28;20258;-53
2023/03/22 09:08:52;;;;;;;7.63;2.00;;;12.40;99.90;;;;;;5054296;28;20181;-52
2023/03/22 09:11:18;;;;;;;4.80;1.33;;;12.40;99.90;;;;;;5054142;28;20743;-53
2023/03/22 09:13:44;;;;;;;5.67;1.60;;;12.30;99.90;;;;;;5054738;28;20172;-51
2023/03/22 09:16:10;;;;;;;3.23;1.20;;;12.30;99.90;;;;;;5054082;28;20286;-52
2023/03/22 09:18:36;;;;;;;2.37;1.47;;;12.40;99.90;;;;;;5054090;28;20180;-52
2023/03/22 09:21:04;;;;;;;10.00;1.90;;;12.50;99.90;;;;;;5054898;28;20200;-51
2023/03/22 09:23:31;;;;;;;11.57;1.90;;;12.50;99.90;;;;;;5055602;28;20218;-53
2023/03/22 09:25:59;;;;;;;6.63;2.20;;;12.50;99.90;;;;;;5054756;28;20191;-52
2023/03/22 09:28:25;;;;;;;4.33;1.77;;;12.50;99.90;;;;;;5054849;28;20271;-53
2023/03/22 09:30:50;;;;;;;6.43;1.40;;;12.60;99.90;;;;;;5055207;28;20227;-51
2023/03/22 09:33:16;;;;;;;3.77;1.30;;;12.70;99.90;;;;;;5054127;28;20185;-52
2023/03/22 09:35:42;;;;;;;3.43;1.40;;;12.70;99.90;;;;;;5053831;28;20229;-51
2023/03/22 09:38:09;;;;;;;2.70;1.30;;;12.80;99.90;;;;;;5053886;28;20529;-50
2023/03/22 09:40:38;;;;;;;6.07;1.57;;;12.80;99.90;;;;;;5053874;28;20195;-51
2023/03/22 09:43:06;;;;;;;1.90;1.07;;;12.80;99.90;;;;;;5053940;28;20617;-52
2023/03/22 09:45:40;;;;;;;3.00;1.20;;;12.90;99.90;;;;;;5053662;28;20172;-51
2023/03/22 09:48:23;;;;;;;2.97;0.80;;;13.00;99.90;;;;;;5053929;28;20632;-50
2023/03/22 09:50:51;;;;;;;1.67;0.90;;;13.00;99.90;;;;;;5053807;28;20204;-50
2023/03/22 09:53:18;;;;;;;4.10;1.30;;;13.10;99.90;;;;;;5053921;28;20176;-51
2023/03/22 09:55:56;;;;;;;6.23;1.20;;;13.10;99.90;;;;;;5053639;28;20319;-51
2023/03/22 09:58:49;;;;;;;7.00;1.70;;;13.30;99.90;;;;;;5053514;28;20262;-51
2023/03/22 10:01:36;;;;;;;3.17;1.20;;;13.40;99.90;;;;;;5053671;28;20632;-52
2023/03/22 10:04:10;;;;;;;3.80;1.63;;;13.50;99.90;;;;;;5053318;28;20609;-50
2023/03/22 10:06:36;;;;;;;2.20;1.00;;;13.60;99.90;;;;;;5053620;28;20181;-51
2023/03/22 10:09:18;;;;;;;5.30;1.60;;;13.80;99.90;;;;;;5053751;28;20566;-53
2023/03/22 10:12:15;;;;;;;4.47;1.43;;;13.90;99.90;;;;;;5053706;28;20215;-53
2023/03/22 10:15:09;;;;;;;5.97;1.40;;;13.90;99.90;;;;;;5053876;28;20218;-51
2023/03/22 10:17:37;;;;;;;6.53;1.77;;;13.90;99.90;;;;;;5054167;28;20172;-52
2023/03/22 10:20:40;;;;;;;10.47;1.37;;;13.80;99.90;;;;;;5053400;28;20180;-51
2023/03/22 10:23:12;;;;;;;5.60;1.73;;;13.80;99.90;;;;;;5053549;28;20203;-52
2023/03/22 10:25:40;;;;;;;5.43;1.77;;;13.70;99.90;;;;;;5053623;28;20195;-51
2023/03/22 10:28:20;;;;;;;4.37;1.60;;;13.70;99.90;;;;;;5053189;28;20172;-53
2023/03/22 10:30:53;;;;;;;2.73;1.20;;;13.70;99.90;;;;;;5053314;28;20555;-50
2023/03/22 10:33:36;;;;;;;2.43;1.20;;;13.70;99.90;;;;;;5053503;28;20619;-52
2023/03/22 10:36:05;;;;;;;5.07;1.70;;;13.60;99.90;;;;;;5053581;28;20666;-51
2023/03/22 10:38:33;;;;;;;4.03;1.33;;;13.60;99.90;;;;;;5053522;28;20186;-50
2023/03/22 10:41:00;;;;;;;4.87;1.40;;;13.50;99.90;;;;;;5053172;28;20258;-51
2023/03/22 10:43:35;;;;;;;3.73;1.40;;;13.50;99.90;;;;;;5053659;28;20735;-51
2023/03/22 10:46:03;;;;;;;5.10;1.27;;;13.50;99.90;;;;;;5053430;28;20658;-51
2023/03/22 10:48:34;;;;;;;4.37;1.97;;;13.50;99.90;;;;;;5053013;28;20176;-52
2023/03/22 10:51:00;;;;;;;6.27;1.40;;;13.60;99.90;;;;;;5053024;28;20663;-51
2023/03/22 10:53:43;;;;;;;4.07;1.23;;;13.60;99.90;;;;;;5053041;28;20180;-51
2023/03/22 10:56:13;;;;;;;4.37;1.30;;;13.60;99.90;;;;;;5053274;28;20632;-51
2023/03/22 10:58:38;;;;;;;4.97;1.63;;;13.60;99.90;;;;;;5053186;28;20184;-52
2023/03/22 11:01:08;;;;;;;3.43;1.30;;;13.60;99.90;;;;;;5053191;28;20207;-50
2023/03/22 11:03:34;;;;;;;3.10;1.30;;;13.60;99.90;;;;;;5052772;28;20573;-51
2023/03/22 11:06:13;;;;;;;5.37;1.60;;;13.50;99.90;;;;;;5053112;28;20172;-52
2023/03/22 11:08:46;;;;;;;4.43;1.30;;;13.50;99.90;;;;;;5053179;28;20234;-52
2023/03/22 11:11:22;;;;;;;2.83;1.10;;;13.50;99.90;;;;;;5055377;28;20656;-51
2023/03/22 11:13:55;;;;;;;2.33;1.00;;;13.40;99.90;;;;;;5056700;28;20198;-52
2023/03/22 11:16:22;;;;;;;2.73;1.10;;;13.40;99.90;;;;;;5056863;28;20164;-52
2023/03/22 11:18:48;;;;;;;5.83;1.77;;;13.40;99.90;;;;;;5056847;28;20180;-51
2023/03/22 11:21:16;;;;;;;5.07;1.50;;;13.40;99.90;;;;;;5056850;28;20528;-52
2023/03/22 11:23:56;;;;;;;6.83;1.60;;;13.40;99.90;;;;;;5056381;28;20204;-51
2023/03/22 11:26:32;;;;;;;3.53;1.30;;;13.50;99.90;;;;;;5057104;28;20200;-53
2023/03/22 11:29:18;;;;;;;5.40;1.23;;;13.40;99.90;;;;;;5056315;28;20180;-53
2023/03/22 11:31:53;;;;;;;3.80;1.30;;;13.50;99.90;;;;;;5055171;28;20207;-52
2023/03/22 11:34:20;;;;;;;6.33;1.00;;;13.50;99.90;;;;;;5056176;28;20583;-50
2023/03/22 11:36:53;;;;;;;4.67;1.50;;;13.60;99.90;;;;;;5056363;28;20172;-52
2023/03/22 11:39:23;;;;;;;2.70;1.00;;;13.60;99.90;;;;;;5054859;28;20176;-52
2023/03/22 11:41:49;;;;;;;5.20;1.30;;;13.70;99.90;;;;;;5056502;28;20279;-51
2023/03/22 11:44:18;;;;;;;5.87;1.87;;;13.80;99.90;;;;;;5056083;28;20281;-51
2023/03/22 11:46:59;;;;;;;4.73;1.30;;;13.80;99.90;;;;;;5056152;28;20184;-51
2023/03/22 11:49:50;;;;;;;4.87;1.47;;;13.90;99.90;;;;;;5055726;28;20214;-51
2023/03/22 11:52:21;;;;;;;3.17;1.50;;;13.90;99.90;;;;;;5055827;28;20192;-51
2023/03/22 11:54:47;;;;;;;3.17;1.27;;;13.90;99.90;;;;;;5055759;28;20168;-52
2023/03/22 11:57:21;;;;;;;5.17;1.10;;;13.90;99.90;;;;;;5055659;28;20271;-51
2023/03/22 12:00:10;;;;;;;5.37;1.23;;;13.80;99.90;;;;;;5055630;28;20204;-52
2023/03/22 12:02:44;;;;;;;4.80;1.30;;;13.90;99.90;;;;;;5055817;28;20204;-52
2023/03/22 12:05:19;;;;;;;6.10;1.53;;;13.80;99.90;;;;;;5055882;28;20217;-52
2023/03/22 12:07:46;;;;;;;2.93;1.23;;;13.80;99.90;;;;;;5055828;28;20529;-51
2023/03/22 12:10:26;;;;;;;3.33;1.20;;;13.80;99.90;;;;;;5055475;28;20180;-51
2023/03/22 12:12:57;;;;;;;5.47;1.60;;;13.80;99.90;;;;;;5055650;28;20168;-52
2023/03/22 12:15:27;;;;;;;4.30;1.50;;;13.80;99.90;;;;;;5055672;28;20167;-52
2023/03/22 12:17:55;;;;;;;5.50;1.10;;;13.80;99.90;;;;;;5055360;28;20208;-51
2023/03/22 12:20:41;;;;;;;2.50;1.17;;;13.70;99.90;;;;;;5055518;28;20592;-52
2023/03/22 12:23:19;;;;;;;3.47;1.10;;;13.70;99.90;;;;;;5054234;28;20271;-51
2023/03/22 12:26:11;;;;;;;3.93;1.20;;;13.70;99.90;;;;;;5056257;28;20190;-53
2023/03/22 12:28:45;;;;;;;4.33;1.60;;;13.70;99.90;;;;;;5055614;28;20169;-51
2023/03/22 12:31:26;;;;;;;3.43;1.43;;;13.70;99.90;;;;;;5055873;28;20203;-48
2023/03/22 12:33:55;;;;;;;3.27;1.23;;;13.70;99.90;;;;;;5055496;28;20635;-49
2023/03/22 12:37:04;;;;;;;4.23;1.30;;;13.70;99.90;;;;;;5055132;28;20180;-48
2023/03/22 12:39:38;;;;;;;4.87;1.53;;;13.70;99.90;;;;;;5013502;28;20186;-48
2023/03/22 12:42:32;;;;;;;9.03;1.40;;;13.60;99.90;;;;;;5013130;28;20202;-48
2023/03/22 12:45:04;;;;;;;4.73;1.57;;;13.70;99.90;;;;;;5040342;28;20230;-49
2023/03/22 12:47:40;;;;;;;3.73;1.87;;;13.70;99.90;;;;;;5055296;28;20160;-49
2023/03/22 12:50:19;;;;;;;4.37;1.40;;;13.70;99.90;;;;;;5054746;28;20537;-49
2023/03/22 12:55:25;;;;;;;6.37;1.70;;;13.70;99.90;;;;;;5052425;28;20215;-48
2023/03/22 12:57:53;;;;;;;4.80;1.43;;;13.70;99.90;;;;;;5055250;28;20734;-48
2023/03/22 13:00:26;;;;;;;4.97;1.50;;;13.80;99.90;;;;;;5055438;28;20180;-48
2023/03/22 13:03:16;;;;;;;3.43;1.40;;;13.80;99.90;;;;;;5055199;28;20204;-48
2023/03/22 13:05:44;;;;;;;4.37;1.10;;;13.90;99.90;;;;;;5054749;28;20188;-50
2023/03/22 13:08:10;;;;;;;3.73;1.50;;;13.90;99.90;;;;;;5055295;28;20179;-48
2023/03/22 13:10:46;;;;;;;3.30;1.40;;;13.90;99.90;;;;;;5055100;28;20196;-49